Terminal Aerodrome Forecast
Issued by NWS Brownsville, TX

Home | Current Version | Previous Version | Text Only | Print | Product List | Glossary On
Versions: 1 2 3 4 5 6 7 8 9 10 11 12 13 14 15
107
FTUS44 KBRO 262204 AAA
TAFBRO
TAF AMD
KBRO 262204Z 2622/2718 15021G28KT P6SM SCT025 BKN035
      TEMPO 2622/2624 BKN025
     FM270100 15014G20KT P6SM SCT250
     FM270600 16012KT P6SM BKN250
     FM271500 16020G28KT P6SM SCT030=

USA.gov is the U.S. government's official web portal to all federal, state and local government web resources and services.